Information Last Ob Photographs Calibration Meteogram Network Table Neighbors Monthly Summaries Observation History Wind Roses Custom Wind Roses Data Calendar Satellite Cloud Product Download

Satellite Cloud Product

NESDIS produces a Satellite Cloud Product (SCP) that supplements the ASOS ceilometer readings. This page merges the SCP data with the METAR observations for a given UTC date. Cloud level values are presented in feet above ground level. ECA represents estimated cloud amount expressed in percentage. An IEM Web Service provided the following JSON dataset for this page. Data is available for some sites back to 1993.

Year: Month: Day: Time Order:

 

SCP Valid UTCSatellite East SounderSatellite West SounderASOS METAR Report
Mid CloudsHigh CloudsLevels [ft]ECA [%]Mid CloudsHigh CloudsLevels [ft]ECA [%]Levels ftMETAR
0050ZSCT13000 - 240006SCT13000 - 240005CLR KIOW 250052Z AUTO 15007KT 10SM CLR 03/M08 A2995 RMK AO2 SLP148 T00281078
0150ZCLR-0CLR-0CLR KIOW 250152Z AUTO 15008KT 10SM CLR 01/M07 A2993 RMK AO2 SLP144 T00111072
0250ZCLR-0CLR-0CLR KIOW 250252Z AUTO 13007KT 10SM CLR 01/M07 A2992 RMK AO2 SLP138 T00061072 58010
0350ZCLR-0CLR-0CLR KIOW 250352Z AUTO 12005KT 10SM CLR 00/M07 A2990 RMK AO2 SLP131 T00001072
0450ZCLR-0CLR-0CLR KIOW 250452Z AUTO 12004KT 10SM CLR 00/M07 A2987 RMK AO2 SLP121 T00001072
0550ZCLR-0CLR-0CLR KIOW 250552Z AUTO 12004KT 10SM CLR 00/M07 A2985 RMK AO2 SLP113 T00001072 10050 21006 400671050 58023
0650ZCLR-0CLR-0CLR KIOW 250652Z AUTO 00000KT 10SM CLR M01/M07 A2983 RMK AO2 SLP108 T10061072
0750ZCLR-0CLR-0CLR KIOW 250752Z AUTO 15003KT 10SM CLR M01/M07 A2981 RMK AO2 SLP101 T10061067
0850ZSCT18000 - 290003SCT13000 - 250005CLR KIOW 250852Z AUTO 13004KT 10SM CLR M01/M06 A2978 RMK AO2 SLP091 T10061061 58021
0950ZCLR-0CLR-0CLR KIOW 250952Z AUTO 00000KT 10SM CLR M03/M07 A2977 RMK AO2 SLP087 T10331072
1050ZSCT13000 - 130000SCT13000 - 130000CLR KIOW 251052Z AUTO 15003KT 10SM CLR M03/M06 A2976 RMK AO2 SLP085 T10281061